Weather at Capua Airport

Public forecast

Using degrees Celsius for public forecast. Weather courtesy of forecast.io.

Closest aviation weather report (METAR) to Capua Airport

Closest report is Grazzanise Air Base, 5.5 nm (10.1 km) SW.

2024/07/20 04:55 (retrieved 1 hour ago)

LIRM 200455Z 04002KT 9999 SCT030 24/22 Q1011 RMK SCT VIS MIN 9999 WIND THR06 05003KT BLU

Closest aviation forecast (TAF) to Capua Airport

Forecast is more than 6 hours old.

Closest forecast is Crotone Airport, 184.3 nm (341.3 km) SE.

2024/07/19 18:55 (retrieved 11 hours ago)

TAF LIBC 191700Z 1918/2018 VRB05KT CAVOK BECMG 2012/2014 21015KT